createdAt,value
2017-10-30T00:00:24.747Z,91
2017-10-30T00:01:27.110Z,91
2017-10-30T00:02:29.481Z,91
2017-10-30T00:03:31.854Z,91
2017-10-30T00:04:34.230Z,92
2017-10-30T00:05:36.595Z,92
2017-10-30T00:06:38.987Z,92
2017-10-30T00:07:41.683Z,92
2017-10-30T00:08:44.409Z,92
2017-10-30T00:09:46.777Z,92
2017-10-30T00:10:49.154Z,92
2017-10-30T00:11:51.519Z,92
2017-10-30T00:12:53.883Z,92
2017-10-30T00:13:56.256Z,92
2017-10-30T00:14:58.628Z,92
2017-10-30T00:16:00.990Z,92
2017-10-30T00:17:03.361Z,92
2017-10-30T00:18:05.720Z,91
2017-10-30T00:19:08.093Z,91
2017-10-30T00:20:10.461Z,92
2017-10-30T00:21:12.835Z,92
2017-10-30T00:22:15.192Z,91
2017-10-30T00:23:17.567Z,91
2017-10-30T00:24:19.928Z,91
2017-10-30T00:25:22.301Z,91
2017-10-30T00:26:24.662Z,92
2017-10-30T00:27:27.027Z,92
2017-10-30T00:28:29.395Z,92
2017-10-30T00:29:31.769Z,92
2017-10-30T00:30:34.130Z,92
2017-10-30T00:31:36.490Z,92
2017-10-30T00:32:38.857Z,92
2017-10-30T00:33:41.236Z,92
2017-10-30T00:34:43.605Z,92
2017-10-30T00:35:45.961Z,92
2017-10-30T00:36:48.330Z,92
2017-10-30T00:37:50.696Z,92
2017-10-30T00:38:53.070Z,92
2017-10-30T00:39:55.443Z,92
2017-10-30T00:40:57.816Z,92
2017-10-30T00:42:00.534Z,92
2017-10-30T00:43:02.911Z,92
2017-10-30T00:44:05.276Z,92
2017-10-30T00:45:07.636Z,93
2017-10-30T00:46:10.004Z,92
2017-10-30T00:47:12.712Z,92
2017-10-30T00:48:15.086Z,92
2017-10-30T00:49:17.456Z,92
2017-10-30T00:50:19.813Z,92
2017-10-30T00:51:22.181Z,92
2017-10-30T00:52:24.555Z,91
2017-10-30T00:53:26.917Z,91
2017-10-30T00:54:29.280Z,91
2017-10-30T00:55:31.654Z,91
2017-10-30T00:56:34.370Z,91
2017-10-30T00:57:36.757Z,91
2017-10-30T00:58:39.124Z,91
2017-10-30T00:59:41.860Z,92
2017-10-30T01:00:44.226Z,92
2017-10-30T01:01:46.596Z,92
2017-10-30T01:02:48.960Z,92
2017-10-30T01:03:51.323Z,92
2017-10-30T01:04:53.695Z,92
2017-10-30T01:05:56.066Z,92
2017-10-30T01:06:58.446Z,92
2017-10-30T01:08:00.818Z,92
2017-10-30T01:09:03.180Z,92
2017-10-30T01:10:05.547Z,92
2017-10-30T01:11:07.919Z,92
2017-10-30T01:12:10.306Z,92
2017-10-30T01:13:13.376Z,92
2017-10-30T01:14:15.740Z,92
2017-10-30T01:15:18.100Z,92
2017-10-30T01:16:20.476Z,92
2017-10-30T01:17:22.844Z,92
2017-10-30T01:18:25.206Z,92
2017-10-30T01:19:27.574Z,92
2017-10-30T01:20:29.949Z,92
2017-10-30T01:21:32.324Z,92
2017-10-30T01:22:34.692Z,92
2017-10-30T01:23:37.057Z,92
2017-10-30T01:24:39.424Z,92
2017-10-30T01:25:41.792Z,92
2017-10-30T01:26:44.162Z,92
2017-10-30T01:27:46.539Z,92
2017-10-30T01:28:48.894Z,92
2017-10-30T01:29:51.258Z,92
2017-10-30T01:30:53.631Z,92
2017-10-30T01:31:55.993Z,92
2017-10-30T01:32:58.355Z,91
2017-10-30T01:34:00.722Z,91
2017-10-30T01:35:03.091Z,91
2017-10-30T01:36:05.459Z,91
2017-10-30T01:37:07.826Z,91
2017-10-30T01:38:10.550Z,91
2017-10-30T01:39:12.921Z,92
2017-10-30T01:40:15.275Z,92
2017-10-30T01:41:17.642Z,92
2017-10-30T01:42:20.008Z,92
2017-10-30T01:43:22.721Z,92
2017-10-30T01:44:25.097Z,92
2017-10-30T01:45:27.471Z,92
2017-10-30T01:46:29.838Z,92
2017-10-30T01:47:32.217Z,92
2017-10-30T01:48:34.572Z,92
2017-10-30T01:49:36.939Z,92
2017-10-30T01:50:39.306Z,92
2017-10-30T01:51:41.673Z,92
2017-10-30T01:52:44.047Z,92
2017-10-30T01:53:46.784Z,92
2017-10-30T01:54:49.136Z,92
2017-10-30T01:55:51.515Z,92
2017-10-30T01:56:53.881Z,92
2017-10-30T01:57:56.248Z,92
2017-10-30T01:58:58.616Z,92
2017-10-30T02:00:00.994Z,92
2017-10-30T02:01:03.359Z,92
2017-10-30T02:02:05.739Z,92
2017-10-30T02:03:08.103Z,92
2017-10-30T02:04:10.461Z,92
2017-10-30T02:05:12.832Z,92
2017-10-30T02:06:15.212Z,92
2017-10-30T02:07:17.925Z,92
2017-10-30T02:08:20.289Z,92
2017-10-30T02:09:22.656Z,92
2017-10-30T02:10:25.020Z,92
2017-10-30T02:11:27.396Z,92
2017-10-30T02:12:29.763Z,92
2017-10-30T02:13:32.112Z,92
2017-10-30T02:14:34.485Z,92
2017-10-30T02:15:36.866Z,92
2017-10-30T02:16:39.232Z,92
2017-10-30T02:17:41.958Z,92
2017-10-30T02:18:44.313Z,92
2017-10-30T02:19:46.679Z,92
2017-10-30T02:20:49.065Z,92
2017-10-30T02:21:51.439Z,92
2017-10-30T02:22:54.155Z,92
2017-10-30T02:23:56.526Z,92
2017-10-30T02:24:58.892Z,92
2017-10-30T02:26:01.261Z,92
2017-10-30T02:27:03.630Z,92
2017-10-30T02:28:05.986Z,92
2017-10-30T02:29:08.698Z,92
2017-10-30T02:30:11.079Z,92
2017-10-30T02:31:13.820Z,92
2017-10-30T02:32:16.184Z,92
2017-10-30T02:33:18.553Z,92
2017-10-30T02:34:21.298Z,92
2017-10-30T02:35:23.677Z,91
2017-10-30T02:36:26.398Z,91
2017-10-30T02:37:28.759Z,92
2017-10-30T02:38:31.127Z,91
2017-10-30T02:39:33.483Z,91
2017-10-30T02:40:36.237Z,91
2017-10-30T02:41:38.601Z,91
2017-10-30T02:42:40.965Z,91
2017-10-30T02:43:43.340Z,92
2017-10-30T02:44:45.701Z,92
2017-10-30T02:45:48.074Z,91
2017-10-30T02:46:50.457Z,91
2017-10-30T02:47:52.814Z,91
2017-10-30T02:48:55.180Z,91
2017-10-30T02:49:57.556Z,91
2017-10-30T02:50:59.928Z,91
2017-10-30T02:52:02.288Z,91
2017-10-30T02:53:04.660Z,91
2017-10-30T02:54:07.016Z,91
2017-10-30T02:55:09.771Z,91
2017-10-30T02:56:12.489Z,91
2017-10-30T02:57:14.850Z,92
2017-10-30T02:58:17.216Z,92
2017-10-30T02:59:19.582Z,92
2017-10-30T03:00:21.948Z,92
2017-10-30T03:01:24.324Z,92
2017-10-30T03:02:26.701Z,92
2017-10-30T03:03:29.050Z,92
2017-10-30T03:04:31.417Z,92
2017-10-30T03:05:33.793Z,92
2017-10-30T03:06:36.150Z,92
2017-10-30T03:07:38.526Z,92
2017-10-30T03:08:40.899Z,91
2017-10-30T03:09:43.261Z,91
2017-10-30T03:10:45.997Z,91
2017-10-30T03:11:48.366Z,91
2017-10-30T03:12:50.726Z,91
2017-10-30T03:13:53.095Z,92
2017-10-30T03:14:55.463Z,92
2017-10-30T03:15:57.829Z,92
2017-10-30T03:17:00.913Z,92
2017-10-30T03:18:03.278Z,92
2017-10-30T03:19:05.997Z,91
2017-10-30T03:20:08.396Z,91
2017-10-30T03:21:10.741Z,91
2017-10-30T03:22:13.096Z,91
2017-10-30T03:23:15.811Z,91
2017-10-30T03:24:18.174Z,92
2017-10-30T03:25:20.546Z,92
2017-10-30T03:26:22.920Z,92
2017-10-30T03:27:25.276Z,92
2017-10-30T03:28:27.652Z,92
2017-10-30T03:29:30.033Z,92
2017-10-30T03:30:32.400Z,92
2017-10-30T03:31:34.759Z,92
2017-10-30T03:32:37.130Z,92
2017-10-30T03:33:39.853Z,92
2017-10-30T03:34:42.207Z,92
2017-10-30T03:35:44.595Z,92
2017-10-30T03:36:47.310Z,92
2017-10-30T03:37:49.690Z,92
2017-10-30T03:38:52.053Z,93
2017-10-30T03:39:54.427Z,93
2017-10-30T03:40:56.797Z,93
2017-10-30T03:41:59.170Z,93
2017-10-30T03:43:01.535Z,93
2017-10-30T03:44:03.897Z,93
2017-10-30T03:45:06.253Z,93
2017-10-30T03:46:08.627Z,93
2017-10-30T03:47:10.990Z,93
2017-10-30T03:48:13.363Z,93
2017-10-30T03:49:15.739Z,93
2017-10-30T03:50:18.105Z,92
2017-10-30T03:51:20.475Z,93
2017-10-30T03:52:22.842Z,93
2017-10-30T03:53:25.196Z,93
2017-10-30T03:54:27.601Z,93
2017-10-30T03:55:29.961Z,93
2017-10-30T03:56:32.329Z,93
2017-10-30T03:57:34.704Z,93
2017-10-30T03:58:37.067Z,93
2017-10-30T03:59:39.428Z,93
2017-10-30T04:00:41.806Z,93
2017-10-30T04:01:44.170Z,92
2017-10-30T04:02:46.530Z,92
2017-10-30T04:03:48.902Z,92
2017-10-30T04:04:51.266Z,92
2017-10-30T04:05:53.637Z,92
2017-10-30T04:06:56.003Z,92
2017-10-30T04:07:58.380Z,92
2017-10-30T04:09:00.742Z,91
2017-10-30T04:10:03.113Z,91
2017-10-30T04:11:05.476Z,91
2017-10-30T04:12:07.845Z,91
2017-10-30T04:13:10.207Z,91
2017-10-30T04:14:12.572Z,91
2017-10-30T04:15:14.938Z,91
2017-10-30T04:16:17.315Z,92
2017-10-30T04:17:19.667Z,92
2017-10-30T04:18:22.028Z,92
2017-10-30T04:19:24.395Z,92
2017-10-30T04:20:27.120Z,92
2017-10-30T04:21:29.488Z,92
2017-10-30T04:22:31.845Z,92
2017-10-30T04:23:34.216Z,92
2017-10-30T04:24:37.287Z,92
2017-10-30T04:25:39.660Z,92
2017-10-30T04:26:42.029Z,92
2017-10-30T04:27:44.384Z,92
2017-10-30T04:28:46.763Z,92
2017-10-30T04:29:49.125Z,92
2017-10-30T04:30:51.489Z,92
2017-10-30T04:31:53.862Z,92
2017-10-30T04:32:56.612Z,92
2017-10-30T04:33:59.351Z,91
2017-10-30T04:35:02.441Z,91
2017-10-30T04:36:04.808Z,91
2017-10-30T04:37:07.181Z,91
2017-10-30T04:38:09.928Z,91
2017-10-30T04:39:12.294Z,91
2017-10-30T04:40:14.653Z,91
2017-10-30T04:41:17.030Z,91
2017-10-30T04:42:19.391Z,91
2017-10-30T04:43:21.755Z,91
2017-10-30T04:44:24.480Z,91
2017-10-30T04:45:26.849Z,91
2017-10-30T04:46:29.217Z,91
2017-10-30T04:47:31.581Z,91
2017-10-30T04:48:33.953Z,91
2017-10-30T04:49:36.316Z,91
2017-10-30T04:50:38.695Z,91
2017-10-30T04:51:41.066Z,91
2017-10-30T04:52:43.417Z,91
2017-10-30T04:53:45.797Z,91
2017-10-30T04:54:48.160Z,91
2017-10-30T04:55:50.526Z,91
2017-10-30T04:56:52.888Z,91
2017-10-30T04:57:55.252Z,91
2017-10-30T04:58:57.618Z,91
2017-10-30T04:59:59.999Z,91
2017-10-30T05:01:02.361Z,91
2017-10-30T05:02:04.733Z,91
2017-10-30T05:03:07.452Z,91
2017-10-30T05:04:09.824Z,91
2017-10-30T05:05:12.211Z,90
2017-10-30T05:06:14.581Z,90
2017-10-30T05:07:16.941Z,90
2017-10-30T05:08:19.307Z,90
2017-10-30T05:09:22.382Z,90
2017-10-30T05:10:24.731Z,90
2017-10-30T05:11:27.454Z,90
2017-10-30T05:12:29.816Z,90
2017-10-30T05:13:32.182Z,90
2017-10-30T05:14:34.563Z,90
2017-10-30T05:15:36.922Z,90
2017-10-30T05:16:39.302Z,89
2017-10-30T05:17:41.673Z,89
2017-10-30T05:18:44.035Z,89
2017-10-30T05:19:46.407Z,90
2017-10-30T05:20:48.827Z,90
2017-10-30T05:21:51.190Z,90
2017-10-30T05:22:53.562Z,90
2017-10-30T05:23:55.918Z,90
2017-10-30T05:24:58.283Z,89
2017-10-30T05:26:01.018Z,89
2017-10-30T05:27:03.381Z,89
2017-10-30T05:28:05.745Z,89
2017-10-30T05:29:08.461Z,89
2017-10-30T05:30:10.826Z,89
2017-10-30T05:31:13.177Z,89
2017-10-30T05:32:15.954Z,89
2017-10-30T05:33:18.322Z,90
2017-10-30T05:34:20.688Z,90
2017-10-30T05:35:23.397Z,90
2017-10-30T05:36:25.761Z,90
2017-10-30T05:37:28.122Z,90
2017-10-30T05:38:30.499Z,90
2017-10-30T05:39:32.862Z,89
2017-10-30T05:40:35.925Z,89
2017-10-30T05:41:38.644Z,89
2017-10-30T05:42:41.022Z,89
2017-10-30T05:43:43.390Z,89
2017-10-30T05:44:46.108Z,89
2017-10-30T05:45:48.476Z,89
2017-10-30T05:46:50.848Z,88
2017-10-30T05:47:53.217Z,88
2017-10-30T05:48:55.585Z,88
2017-10-30T05:49:57.947Z,88
2017-10-30T05:51:00.309Z,88
2017-10-30T05:52:03.029Z,88
2017-10-30T05:53:05.393Z,87
2017-10-30T05:54:07.756Z,87
2017-10-30T05:55:12.288Z,87
2017-10-30T05:56:14.814Z,87
2017-10-30T05:57:17.179Z,87
2017-10-30T05:58:19.570Z,87
2017-10-30T05:59:21.936Z,87
2017-10-30T06:00:24.313Z,86
2017-10-30T06:01:26.681Z,86
2017-10-30T06:02:29.051Z,86
2017-10-30T06:03:31.414Z,85
2017-10-30T06:04:34.141Z,86
2017-10-30T06:05:36.509Z,86
2017-10-30T06:06:38.910Z,86
2017-10-30T06:07:41.629Z,86
2017-10-30T06:08:44.004Z,86
2017-10-30T06:09:46.385Z,87
2017-10-30T06:10:48.755Z,87
2017-10-30T06:11:51.121Z,87
2017-10-30T06:12:53.848Z,87
2017-10-30T06:13:56.204Z,87
2017-10-30T06:14:58.581Z,87
2017-10-30T06:16:00.975Z,87
2017-10-30T06:17:04.736Z,86
2017-10-30T06:18:07.587Z,87
2017-10-30T06:19:10.298Z,87
2017-10-30T06:20:12.689Z,87
2017-10-30T06:21:15.065Z,87
2017-10-30T06:22:17.425Z,86
2017-10-30T06:23:20.156Z,86
2017-10-30T06:24:23.087Z,86
2017-10-30T06:25:25.450Z,86
2017-10-30T06:26:27.961Z,86
2017-10-30T06:27:30.693Z,86
2017-10-30T06:28:33.071Z,86
2017-10-30T06:29:35.443Z,87
2017-10-30T06:30:38.552Z,86
2017-10-30T06:31:40.916Z,87
2017-10-30T06:32:43.404Z,86
2017-10-30T06:33:45.777Z,86
2017-10-30T06:34:48.791Z,86
2017-10-30T06:35:51.167Z,86
2017-10-30T06:36:53.879Z,86
2017-10-30T06:37:56.234Z,86
2017-10-30T06:38:58.792Z,86
2017-10-30T06:40:01.583Z,86
2017-10-30T06:41:03.951Z,85
2017-10-30T06:42:06.351Z,85
2017-10-30T06:43:09.529Z,86
2017-10-30T06:44:11.900Z,86
2017-10-30T06:45:14.280Z,86
2017-10-30T06:46:17.396Z,86
2017-10-30T06:47:19.756Z,85
2017-10-30T06:48:22.796Z,86
2017-10-30T06:49:25.389Z,86
2017-10-30T06:50:27.798Z,86
2017-10-30T06:51:30.167Z,85
2017-10-30T06:52:33.747Z,85
2017-10-30T06:53:36.108Z,86
2017-10-30T06:54:38.480Z,86
2017-10-30T06:55:41.204Z,86
2017-10-30T06:56:43.605Z,86
2017-10-30T06:57:45.983Z,86
2017-10-30T06:58:48.356Z,86
2017-10-30T06:59:50.727Z,86
2017-10-30T07:00:53.085Z,85
2017-10-30T07:01:55.459Z,85
2017-10-30T07:02:57.832Z,84
2017-10-30T07:04:01.221Z,84
2017-10-30T07:05:03.966Z,84
2017-10-30T07:06:06.323Z,84
2017-10-30T07:07:08.967Z,83
2017-10-30T07:08:11.921Z,82
2017-10-30T07:09:14.290Z,82
2017-10-30T07:10:16.766Z,82
2017-10-30T07:11:19.144Z,83
2017-10-30T07:12:21.508Z,83
2017-10-30T07:13:23.889Z,84
2017-10-30T07:14:26.251Z,83
2017-10-30T07:15:28.768Z,82
2017-10-30T07:16:31.133Z,82
2017-10-30T07:17:33.499Z,82
2017-10-30T07:18:35.879Z,82
2017-10-30T07:19:38.242Z,82
2017-10-30T07:20:40.721Z,82
2017-10-30T07:21:43.171Z,82
2017-10-30T07:22:45.539Z,81
2017-10-30T07:23:48.260Z,81
2017-10-30T07:24:50.627Z,81
2017-10-30T07:25:52.989Z,81
2017-10-30T07:26:55.496Z,80
2017-10-30T07:27:57.953Z,80
2017-10-30T07:29:00.311Z,80
2017-10-30T07:30:03.053Z,81
2017-10-30T07:31:05.414Z,80
2017-10-30T07:32:08.356Z,80
2017-10-30T07:33:10.726Z,79
2017-10-30T07:34:13.095Z,79
2017-10-30T07:35:15.461Z,79
2017-10-30T07:36:17.837Z,79
2017-10-30T07:37:20.204Z,79
2017-10-30T07:38:22.597Z,79
2017-10-30T07:39:24.937Z,79
2017-10-30T07:40:27.316Z,79
2017-10-30T07:41:30.050Z,78
2017-10-30T07:42:32.419Z,78
2017-10-30T07:43:34.797Z,77
2017-10-30T07:44:37.189Z,77
2017-10-30T07:45:39.535Z,78
2017-10-30T07:46:41.916Z,78
2017-10-30T07:47:44.292Z,79
2017-10-30T07:48:46.657Z,79
2017-10-30T07:49:49.035Z,79
2017-10-30T07:50:51.414Z,78
2017-10-30T07:51:53.785Z,78
2017-10-30T07:52:56.157Z,78
2017-10-30T07:53:58.508Z,78
2017-10-30T07:55:00.873Z,77
2017-10-30T07:56:03.257Z,77
2017-10-30T07:57:05.632Z,76
2017-10-30T07:58:08.012Z,75
2017-10-30T07:59:10.372Z,76
2017-10-30T08:00:12.747Z,76
2017-10-30T08:01:15.118Z,76
2017-10-30T08:02:17.488Z,75
2017-10-30T08:03:19.868Z,74
2017-10-30T08:04:22.229Z,75
2017-10-30T08:05:24.600Z,74
2017-10-30T08:06:26.976Z,75
2017-10-30T08:07:29.341Z,75
2017-10-30T08:08:32.096Z,74
2017-10-30T08:09:34.472Z,74
2017-10-30T08:10:36.847Z,74
2017-10-30T08:11:39.230Z,74
2017-10-30T08:12:41.603Z,72
2017-10-30T08:13:43.982Z,71
2017-10-30T08:14:46.355Z,72
2017-10-30T08:15:48.729Z,72
2017-10-30T08:16:51.454Z,70
2017-10-30T08:17:53.844Z,72
2017-10-30T08:18:56.217Z,71
2017-10-30T08:19:58.617Z,70
2017-10-30T08:21:00.973Z,70
2017-10-30T08:22:03.352Z,70
2017-10-30T08:23:05.732Z,70
2017-10-30T08:24:08.106Z,70
2017-10-30T08:25:10.821Z,70
2017-10-30T08:26:13.205Z,69
2017-10-30T08:27:15.589Z,68
2017-10-30T08:28:17.978Z,68
2017-10-30T08:29:20.342Z,69
2017-10-30T08:30:22.718Z,69
2017-10-30T08:31:25.102Z,70
2017-10-30T08:32:27.481Z,70
2017-10-30T08:33:29.856Z,67
2017-10-30T08:34:32.589Z,66
2017-10-30T08:35:34.959Z,67
2017-10-30T08:36:37.356Z,68
2017-10-30T08:37:39.764Z,68
2017-10-30T08:38:42.113Z,67
2017-10-30T08:39:44.494Z,66
2017-10-30T08:40:46.880Z,65
2017-10-30T08:41:49.617Z,66
2017-10-30T08:42:51.983Z,65
2017-10-30T08:43:54.707Z,66
2017-10-30T08:44:57.094Z,67
2017-10-30T08:45:59.479Z,65
2017-10-30T08:47:01.858Z,65
2017-10-30T08:48:04.595Z,66
2017-10-30T08:49:07.348Z,66
2017-10-30T08:50:09.720Z,65
2017-10-30T08:51:12.121Z,65
2017-10-30T08:52:14.501Z,65
2017-10-30T08:53:16.881Z,63
2017-10-30T08:54:19.264Z,64
2017-10-30T08:55:21.645Z,63
2017-10-30T08:56:24.025Z,64
2017-10-30T08:57:26.414Z,63
2017-10-30T08:58:28.795Z,63
2017-10-30T08:59:31.182Z,63
2017-10-30T09:00:33.599Z,63
2017-10-30T09:01:35.976Z,63
2017-10-30T09:02:38.344Z,63
2017-10-30T09:03:41.111Z,63
2017-10-30T09:04:43.495Z,64
2017-10-30T09:05:45.879Z,65
2017-10-30T09:06:48.269Z,63
2017-10-30T09:07:50.647Z,62
2017-10-30T09:08:53.383Z,62
2017-10-30T09:09:55.789Z,64
2017-10-30T09:10:58.162Z,63
2017-10-30T09:14:07.500Z,61
2017-10-30T09:15:09.884Z,61
2017-10-30T09:16:12.281Z,61
2017-10-30T09:17:14.662Z,61
2017-10-30T09:18:17.393Z,60
2017-10-30T09:19:19.772Z,60
2017-10-30T09:20:22.162Z,60
2017-10-30T09:21:24.540Z,60
2017-10-30T09:22:27.627Z,61
2017-10-30T09:23:30.359Z,62
2017-10-30T09:24:32.756Z,60
2017-10-30T09:25:35.128Z,60
2017-10-30T09:26:37.876Z,61
2017-10-30T09:27:40.251Z,61
2017-10-30T09:28:42.632Z,59
2017-10-30T09:29:45.021Z,60
2017-10-30T09:30:47.408Z,61
2017-10-30T09:31:49.791Z,61
2017-10-30T09:32:52.177Z,60
2017-10-30T09:33:54.564Z,61
2017-10-30T09:34:56.955Z,60
2017-10-30T09:35:59.352Z,62
2017-10-30T09:37:01.726Z,61
2017-10-30T09:38:04.112Z,60
2017-10-30T09:39:06.511Z,60
2017-10-30T09:40:08.895Z,59
2017-10-30T09:41:11.291Z,60
2017-10-30T09:42:13.736Z,60
2017-10-30T09:43:16.121Z,60
2017-10-30T09:44:18.516Z,60
2017-10-30T09:45:20.892Z,58
2017-10-30T09:46:23.278Z,59
2017-10-30T09:47:26.011Z,59
2017-10-30T09:48:28.399Z,59
2017-10-30T09:49:30.791Z,59
2017-10-30T09:50:33.182Z,58
2017-10-30T09:51:35.564Z,60
2017-10-30T09:52:37.957Z,59
2017-10-30T09:53:40.726Z,58
2017-10-30T09:54:43.134Z,58
2017-10-30T09:55:45.520Z,58
2017-10-30T09:56:47.907Z,57
2017-10-30T09:57:50.290Z,57
2017-10-30T09:58:52.683Z,58
2017-10-30T09:59:55.081Z,59
2017-10-30T10:00:57.479Z,58
2017-10-30T10:01:59.887Z,58
2017-10-30T10:03:02.479Z,57
2017-10-30T10:04:04.879Z,57
2017-10-30T10:05:07.272Z,55
2017-10-30T10:06:09.670Z,57
2017-10-30T10:07:12.057Z,57
2017-10-30T10:08:14.712Z,56
2017-10-30T10:09:17.174Z,56
2017-10-30T10:10:19.953Z,54
2017-10-30T10:11:22.353Z,55
2017-10-30T10:12:24.735Z,55
2017-10-30T10:13:27.708Z,55
2017-10-30T10:14:30.084Z,55
2017-10-30T10:15:32.488Z,56
2017-10-30T10:16:34.873Z,55
2017-10-30T10:17:37.278Z,53
2017-10-30T10:18:40.027Z,52
2017-10-30T10:19:43.162Z,51
2017-10-30T10:20:45.555Z,55
2017-10-30T10:21:47.948Z,55
2017-10-30T10:22:50.344Z,55
2017-10-30T10:23:52.743Z,53
2017-10-30T10:24:55.508Z,52
2017-10-30T10:25:57.891Z,52
2017-10-30T10:27:00.276Z,53
2017-10-30T10:28:02.887Z,54
2017-10-30T10:29:05.279Z,54
2017-10-30T10:30:07.670Z,55
2017-10-30T10:31:10.056Z,55
2017-10-30T10:32:12.688Z,55
2017-10-30T10:33:15.074Z,54
2017-10-30T10:34:17.451Z,53
2017-10-30T10:35:19.856Z,51
2017-10-30T10:36:22.233Z,52
2017-10-30T10:37:24.759Z,52
2017-10-30T10:38:27.142Z,54
2017-10-30T10:39:29.533Z,50
2017-10-30T10:40:31.919Z,49
2017-10-30T10:41:34.664Z,50
2017-10-30T10:42:37.049Z,51
2017-10-30T10:43:39.443Z,49
2017-10-30T10:44:41.830Z,50
2017-10-30T10:45:44.305Z,50
2017-10-30T10:46:46.700Z,49
2017-10-30T10:47:49.087Z,51
2017-10-30T10:48:51.459Z,50
2017-10-30T10:49:53.975Z,52
2017-10-30T10:50:56.355Z,50
2017-10-30T10:51:58.743Z,50
2017-10-30T10:53:01.219Z,50
2017-10-30T10:54:03.603Z,50
2017-10-30T10:55:05.994Z,50
2017-10-30T10:56:08.389Z,51
2017-10-30T10:57:10.771Z,50
2017-10-30T10:58:13.157Z,50
2017-10-30T10:59:15.546Z,50
2017-10-30T11:00:17.940Z,50
2017-10-30T11:01:20.331Z,50
2017-10-30T11:02:22.722Z,48
2017-10-30T11:03:25.265Z,47
2017-10-30T11:04:27.648Z,49
2017-10-30T11:05:30.340Z,48
2017-10-30T11:06:32.723Z,49
2017-10-30T11:07:35.105Z,48
2017-10-30T11:08:37.491Z,48
2017-10-30T11:09:39.881Z,49
2017-10-30T11:10:42.630Z,48
2017-10-30T11:11:45.018Z,49
2017-10-30T11:12:47.412Z,49
2017-10-30T11:13:49.809Z,48
2017-10-30T11:14:52.210Z,50
2017-10-30T11:15:54.601Z,49
2017-10-30T11:16:56.974Z,49
2017-10-30T11:17:59.364Z,50
2017-10-30T11:19:01.758Z,48
2017-10-30T11:20:04.499Z,48
2017-10-30T11:21:07.252Z,48
2017-10-30T11:22:09.640Z,48
2017-10-30T11:23:12.391Z,48
2017-10-30T11:24:14.782Z,48
2017-10-30T11:25:17.175Z,49
2017-10-30T11:26:19.918Z,49
2017-10-30T11:27:22.307Z,48
2017-10-30T11:28:24.698Z,49
2017-10-30T11:29:27.084Z,49
2017-10-30T11:30:29.832Z,50
2017-10-30T11:31:32.228Z,48
2017-10-30T11:32:34.608Z,48
2017-10-30T11:33:36.992Z,48
2017-10-30T11:34:39.379Z,50
2017-10-30T11:35:41.773Z,51
2017-10-30T11:36:44.167Z,49
2017-10-30T11:37:46.573Z,51
2017-10-30T11:38:48.938Z,51
2017-10-30T11:39:51.329Z,52
2017-10-30T11:40:53.721Z,51
2017-10-30T11:41:56.101Z,49
2017-10-30T11:42:58.492Z,50
2017-10-30T11:44:00.881Z,50
2017-10-30T11:45:03.622Z,50
2017-10-30T11:46:06.012Z,51
2017-10-30T11:47:08.394Z,49
2017-10-30T11:48:10.767Z,50
2017-10-30T11:49:13.173Z,50
2017-10-30T11:50:15.547Z,51
2017-10-30T11:51:17.940Z,52
2017-10-30T11:52:20.323Z,51
2017-10-30T11:53:22.713Z,53
2017-10-30T11:54:25.104Z,53
2017-10-30T11:55:27.499Z,54
2017-10-30T11:56:30.076Z,53
2017-10-30T11:57:32.452Z,54
2017-10-30T11:58:34.835Z,53
2017-10-30T11:59:37.226Z,53
2017-10-30T12:00:39.610Z,53
2017-10-30T12:01:41.984Z,52
2017-10-30T12:02:44.379Z,53
2017-10-30T12:03:47.449Z,52
2017-10-30T12:04:49.850Z,52
2017-10-30T12:05:52.236Z,53
2017-10-30T12:06:54.616Z,52
2017-10-30T12:07:56.999Z,51
2017-10-30T12:08:59.382Z,51
2017-10-30T12:10:01.764Z,51
2017-10-30T12:11:04.142Z,52
2017-10-30T12:12:06.524Z,53
2017-10-30T12:13:09.260Z,53
2017-10-30T12:14:11.658Z,51
2017-10-30T12:15:14.032Z,53
2017-10-30T12:16:16.416Z,53
2017-10-30T12:17:18.795Z,53
2017-10-30T12:18:21.177Z,55
2017-10-30T12:19:23.928Z,53
2017-10-30T12:20:26.314Z,53
2017-10-30T12:21:28.688Z,52
2017-10-30T12:22:31.089Z,52
2017-10-30T12:23:33.474Z,51
2017-10-30T12:24:35.863Z,51
2017-10-30T12:25:38.234Z,50
2017-10-30T12:26:40.618Z,51
2017-10-30T12:27:43.001Z,49
2017-10-30T12:28:45.371Z,50
2017-10-30T12:29:47.745Z,50
2017-10-30T12:30:50.140Z,50
2017-10-30T12:31:52.876Z,49
2017-10-30T12:32:55.260Z,50
2017-10-30T12:33:57.646Z,49
2017-10-30T12:35:00.030Z,49
2017-10-30T12:36:02.424Z,49
2017-10-30T12:37:04.808Z,50
2017-10-30T12:38:07.174Z,49
2017-10-30T12:39:09.559Z,51
2017-10-30T12:40:11.943Z,49
2017-10-30T12:41:14.324Z,49
2017-10-30T12:42:17.059Z,49
2017-10-30T12:43:19.451Z,49
2017-10-30T12:44:21.830Z,49
2017-10-30T12:45:24.214Z,51
2017-10-30T12:46:26.594Z,50
2017-10-30T12:47:28.972Z,49
2017-10-30T12:48:31.363Z,50
2017-10-30T12:49:33.738Z,50
2017-10-30T12:50:36.120Z,50
2017-10-30T12:51:38.505Z,50
2017-10-30T12:52:40.881Z,48
2017-10-30T12:53:43.269Z,50
2017-10-30T12:54:45.648Z,49
2017-10-30T12:55:48.379Z,51
2017-10-30T12:56:50.757Z,50
2017-10-30T12:57:53.144Z,48
2017-10-30T12:58:55.527Z,50
2017-10-30T12:59:57.917Z,51
2017-10-30T13:01:00.665Z,51
2017-10-30T13:02:03.027Z,50
2017-10-30T13:03:05.433Z,51
2017-10-30T13:04:08.197Z,51
2017-10-30T13:05:10.584Z,52
2017-10-30T13:06:13.323Z,51
2017-10-30T13:07:15.701Z,48
2017-10-30T13:08:18.081Z,48
2017-10-30T13:09:20.473Z,49
2017-10-30T13:10:22.849Z,47
2017-10-30T13:11:25.241Z,46
2017-10-30T13:12:27.616Z,47
2017-10-30T13:13:29.996Z,48
2017-10-30T13:14:32.390Z,47
2017-10-30T13:15:35.280Z,50
2017-10-30T13:16:37.954Z,47
2017-10-30T13:17:41.164Z,47
2017-10-30T13:18:43.549Z,48
2017-10-30T13:19:46.063Z,47
2017-10-30T13:20:48.434Z,48
2017-10-30T13:21:50.909Z,49
2017-10-30T13:22:53.284Z,48
2017-10-30T13:23:55.800Z,49
2017-10-30T13:24:58.544Z,50
2017-10-30T13:26:00.932Z,49
2017-10-30T13:27:03.312Z,49
2017-10-30T13:28:05.712Z,49
2017-10-30T13:29:08.093Z,51
2017-10-30T13:30:10.467Z,49
2017-10-30T13:31:12.852Z,49
2017-10-30T13:32:15.233Z,49
2017-10-30T13:33:17.618Z,50
2017-10-30T13:34:20.356Z,52
2017-10-30T13:35:23.020Z,50
2017-10-30T13:36:25.386Z,51
2017-10-30T13:37:27.779Z,51
2017-10-30T13:38:30.180Z,52
2017-10-30T13:39:32.751Z,51
2017-10-30T13:40:35.136Z,52
2017-10-30T13:41:37.510Z,51
2017-10-30T13:42:39.900Z,52
2017-10-30T13:43:42.295Z,53
2017-10-30T13:44:44.667Z,54
2017-10-30T13:46:32.290Z,54
2017-10-30T13:47:34.720Z,54
2017-10-30T13:48:37.145Z,55
2017-10-30T13:49:39.576Z,56
2017-10-30T13:50:42.005Z,55
2017-10-30T13:51:44.466Z,54
2017-10-30T13:52:46.885Z,54
2017-10-30T13:53:49.561Z,55
2017-10-30T13:54:53.432Z,54
2017-10-30T13:55:57.621Z,56
2017-10-30T13:57:00.430Z,55
2017-10-30T13:58:02.870Z,55
2017-10-30T13:59:05.352Z,56
2017-10-30T14:00:08.556Z,55
2017-10-30T14:01:11.539Z,55
2017-10-30T14:02:14.182Z,56
2017-10-30T14:03:18.222Z,55
2017-10-30T14:04:20.639Z,56
2017-10-30T14:05:23.087Z,57
2017-10-30T14:06:25.533Z,57
2017-10-30T14:07:28.097Z,59
2017-10-30T14:08:30.522Z,58
2017-10-30T14:09:33.083Z,59
2017-10-30T14:10:35.499Z,60
2017-10-30T14:11:37.931Z,58
2017-10-30T14:12:40.710Z,59
2017-10-30T14:13:43.845Z,58
2017-10-30T14:14:46.269Z,60
2017-10-30T14:15:48.696Z,59
2017-10-30T14:16:51.113Z,59
2017-10-30T14:17:53.554Z,59
2017-10-30T14:18:55.978Z,59
2017-10-30T14:19:58.415Z,59
2017-10-30T14:21:00.845Z,60
2017-10-30T14:22:03.276Z,59
2017-10-30T14:23:05.702Z,59
2017-10-30T14:24:08.134Z,60
2017-10-30T14:25:10.560Z,61
2017-10-30T14:26:12.989Z,63
2017-10-30T14:27:15.406Z,61
2017-10-30T14:28:17.850Z,62
2017-10-30T14:29:20.283Z,62
2017-10-30T14:30:23.748Z,62
2017-10-30T14:31:26.176Z,61
2017-10-30T14:32:28.612Z,62
2017-10-30T14:33:31.388Z,63
2017-10-30T14:34:33.812Z,61
2017-10-30T14:35:36.236Z,62
2017-10-30T14:36:38.627Z,62
2017-10-30T14:37:41.049Z,62
2017-10-30T14:38:43.463Z,63
2017-10-30T14:39:45.842Z,62
2017-10-30T14:40:48.211Z,63
2017-10-30T14:41:50.641Z,63
2017-10-30T14:42:53.056Z,62
2017-10-30T14:43:55.445Z,62
2017-10-30T14:44:57.897Z,62
2017-10-30T14:46:00.278Z,63
2017-10-30T14:47:03.017Z,64
2017-10-30T14:48:05.400Z,64
2017-10-30T14:49:07.780Z,65
2017-10-30T14:50:10.561Z,64
2017-10-30T14:51:12.948Z,64
2017-10-30T14:52:15.378Z,63
2017-10-30T14:53:18.830Z,62